Time;durP1;ratioP1;P1;durP2;ratioP2;P2;SDS_P1;SDS_P2;PMS_P1;PMS_P2;Temp;Humidity;BMP_temperature;BMP_pressure;BME280_temperature;BME280_humidity;BME280_pressure;Samples;Min_cycle;Max_cycle;Signal;HPM_P1;HPM_P2
2023/10/12 00:02:00;;;;;;;10.25;4.03;;;21.00;99.90;;;;;;5026242;28;20046;-57
2023/10/12 00:04:35;;;;;;;15.30;4.47;;;20.90;99.90;;;;;;5025258;28;20022;-60
2023/10/12 00:07:10;;;;;;;15.00;3.60;;;20.90;99.90;;;;;;5028532;28;20044;-59
2023/10/12 00:09:36;;;;;;;14.95;4.40;;;20.90;99.90;;;;;;5023017;28;20014;-56
2023/10/12 00:12:07;;;;;;;13.98;4.47;;;20.80;99.90;;;;;;5028403;28;20056;-54
2023/10/12 00:14:34;;;;;;;24.35;5.00;;;20.90;99.90;;;;;;5027768;28;20039;-56
2023/10/12 00:17:00;;;;;;;14.90;4.20;;;20.80;99.90;;;;;;5024956;28;20050;-58
2023/10/12 00:19:26;;;;;;;10.65;3.83;;;20.80;99.90;;;;;;5027164;28;20129;-59
2023/10/12 00:21:57;;;;;;;15.65;4.25;;;20.80;99.90;;;;;;5026399;28;20117;-59
2023/10/12 00:24:23;;;;;;;12.27;3.95;;;20.70;99.90;;;;;;5026289;28;20499;-58
2023/10/12 00:26:49;;;;;;;16.17;4.93;;;20.70;99.90;;;;;;5022632;28;20124;-56
2023/10/12 00:29:15;;;;;;;13.95;4.78;;;20.70;99.90;;;;;;5028313;28;20101;-54
2023/10/12 00:31:43;;;;;;;12.40;4.68;;;20.70;99.90;;;;;;5019898;28;20100;-55
2023/10/12 00:34:10;;;;;;;23.80;5.35;;;20.60;99.90;;;;;;5032349;28;20485;-59
2023/10/12 00:36:45;;;;;;;16.40;4.53;;;20.60;99.90;;;;;;5024729;28;20031;-58
2023/10/12 00:39:11;;;;;;;14.50;4.85;;;20.60;99.90;;;;;;5026073;28;20038;-58
2023/10/12 00:41:44;;;;;;;18.95;4.93;;;20.60;99.90;;;;;;5025028;28;20403;-56
2023/10/12 00:44:11;;;;;;;13.98;4.55;;;20.50;99.90;;;;;;5023094;28;21107;-59
2023/10/12 00:49:22;;;;;;;14.30;4.68;;;20.50;99.90;;;;;;5033575;28;20024;-59
2023/10/12 00:51:54;;;;;;;23.38;5.45;;;20.50;99.90;;;;;;5021737;28;20407;-57
2023/10/12 00:54:27;;;;;;;13.25;4.38;;;20.50;99.90;;;;;;5022558;28;20037;-57
2023/10/12 00:56:57;;;;;;;14.70;5.32;;;20.40;99.90;;;;;;5024323;28;20447;-55
2023/10/12 00:59:23;;;;;;;15.90;5.25;;;20.40;99.90;;;;;;5024544;28;20024;-58
2023/10/12 01:01:49;;;;;;;12.95;4.40;;;20.40;99.90;;;;;;5027554;28;20056;-58
2023/10/12 01:04:16;;;;;;;12.70;4.90;;;20.40;99.90;;;;;;5023088;28;20395;-56
2023/10/12 01:06:44;;;;;;;10.88;4.32;;;20.40;99.90;;;;;;5025219;28;20020;-58
2023/10/12 01:09:19;;;;;;;12.43;4.57;;;20.30;99.90;;;;;;5021588;28;20033;-57
2023/10/12 01:12:00;;;;;;;14.52;5.00;;;20.30;99.90;;;;;;5027087;28;20395;-58
2023/10/12 01:14:28;;;;;;;16.60;5.63;;;20.30;99.90;;;;;;5025079;28;20083;-57
2023/10/12 01:16:57;;;;;;;10.10;4.57;;;20.30;99.90;;;;;;5027337;28;20518;-54
2023/10/12 01:19:25;;;;;;;11.02;4.25;;;20.30;99.90;;;;;;5023089;28;20030;-58
2023/10/12 01:21:54;;;;;;;15.20;5.28;;;20.20;99.90;;;;;;5015035;28;20389;-56
2023/10/12 01:24:29;;;;;;;15.50;4.93;;;20.20;99.90;;;;;;5024536;28;20033;-53
2023/10/12 01:26:55;;;;;;;17.08;4.93;;;20.10;99.90;;;;;;5023225;28;20116;-59
2023/10/12 01:29:20;;;;;;;13.55;4.70;;;19.90;99.90;;;;;;5017542;28;20033;-55
2023/10/12 01:34:36;;;;;;;13.25;4.43;;;19.80;99.90;;;;;;5021886;28;20407;-56
2023/10/12 01:37:26;;;;;;;11.20;4.15;;;19.70;99.90;;;;;;5023160;28;20053;-58
2023/10/12 01:40:21;;;;;;;12.88;4.85;;;19.60;99.90;;;;;;5019277;28;20029;-55
2023/10/12 01:45:24;;;;;;;15.05;4.18;;;19.60;99.90;;;;;;5021358;28;20040;-59
2023/10/12 01:50:38;;;;;;;14.50;4.28;;;19.60;99.90;;;;;;5027130;28;20087;-59
2023/10/12 01:53:26;;;;;;;17.10;4.32;;;19.60;99.90;;;;;;5019319;28;20048;-58
2023/10/12 01:55:53;;;;;;;17.98;4.75;;;19.60;99.90;;;;;;5016195;28;20452;-57
2023/10/12 01:58:20;;;;;;;15.00;4.53;;;19.60;99.90;;;;;;5025313;28;20045;-57
2023/10/12 02:00:53;;;;;;;15.18;4.55;;;19.60;99.90;;;;;;5023861;28;20025;-59
2023/10/12 02:03:31;;;;;;;17.25;4.75;;;19.60;99.90;;;;;;5021181;28;20037;-56
2023/10/12 02:06:02;;;;;;;14.80;4.90;;;19.60;99.90;;;;;;5019937;28;20018;-60
2023/10/12 02:08:32;;;;;;;14.88;4.57;;;19.60;99.90;;;;;;5020264;28;20025;-57
2023/10/12 02:11:11;;;;;;;11.02;4.65;;;19.60;99.90;;;;;;5018917;28;20029;-56
2023/10/12 02:13:38;;;;;;;17.02;5.15;;;19.70;99.90;;;;;;5025906;28;20037;-59
2023/10/12 02:16:05;;;;;;;14.63;4.57;;;19.60;99.90;;;;;;5017599;28;20042;-57
2023/10/12 02:18:32;;;;;;;17.85;4.28;;;19.50;99.90;;;;;;5026006;28;20025;-59
2023/10/12 02:23:36;;;;;;;8.75;4.32;;;19.60;99.90;;;;;;5026627;28;20059;-56
2023/10/12 02:26:28;;;;;;;17.42;4.97;;;19.50;99.90;;;;;;5020471;28;20121;-56
2023/10/12 02:28:53;;;;;;;11.70;4.32;;;19.50;99.90;;;;;;5015646;28;20029;-59
2023/10/12 02:31:22;;;;;;;13.93;4.43;;;19.40;99.90;;;;;;5024772;28;20026;-57
2023/10/12 02:33:48;;;;;;;14.65;4.85;;;19.40;99.90;;;;;;5026698;28;20033;-58
2023/10/12 02:36:17;;;;;;;15.45;4.68;;;19.40;99.90;;;;;;5025009;28;20041;-53
2023/10/12 02:38:43;;;;;;;10.93;4.68;;;19.40;99.90;;;;;;5029259;28;20033;-57
2023/10/12 02:41:12;;;;;;;14.27;4.68;;;19.40;99.90;;;;;;5019860;28;20044;-57
2023/10/12 02:43:49;;;;;;;10.27;3.67;;;19.30;99.90;;;;;;5023378;28;20518;-58
2023/10/12 02:46:22;;;;;;;14.48;4.82;;;19.30;99.90;;;;;;5025689;28;20026;-56
2023/10/12 02:48:50;;;;;;;15.93;4.68;;;19.30;99.90;;;;;;5024825;28;20541;-57
2023/10/12 02:51:22;;;;;;;11.13;4.32;;;19.20;99.90;;;;;;5023202;28;20022;-56
2023/10/12 02:53:48;;;;;;;15.73;4.75;;;19.10;99.90;;;;;;5025756;28;20406;-58
2023/10/12 02:56:15;;;;;;;18.48;5.13;;;19.00;99.90;;;;;;5027486;28;20116;-59
2023/10/12 02:58:45;;;;;;;10.50;4.70;;;19.00;99.90;;;;;;5028225;28;20032;-58
2023/10/12 03:01:16;;;;;;;11.23;5.45;;;19.00;99.90;;;;;;5024745;28;20129;-55
2023/10/12 03:03:54;;;;;;;13.75;5.35;;;18.90;99.90;;;;;;5026457;28;20057;-58
2023/10/12 03:06:24;;;;;;;13.82;5.90;;;18.90;99.90;;;;;;5023760;28;20018;-55
2023/10/12 03:12:02;;;;;;;13.48;6.30;;;18.90;99.90;;;;;;5022584;28;20026;-58
2023/10/12 03:14:27;;;;;;;12.38;5.50;;;18.80;99.90;;;;;;5019895;28;20542;-58
2023/10/12 03:16:53;;;;;;;18.13;6.25;;;18.80;99.90;;;;;;5026976;28;20025;-56
2023/10/12 03:19:25;;;;;;;16.77;6.03;;;18.70;99.90;;;;;;5022934;28;20053;-58
2023/10/12 03:21:52;;;;;;;19.50;5.80;;;18.70;99.90;;;;;;5026542;28;20555;-57
2023/10/12 03:24:23;;;;;;;15.02;6.20;;;18.60;99.90;;;;;;5020235;28;20033;-57
2023/10/12 03:27:10;;;;;;;13.10;6.22;;;18.60;99.90;;;;;;5024408;28;20045;-57
2023/10/12 03:29:43;;;;;;;12.10;5.50;;;18.60;99.90;;;;;;5024971;28;20042;-57
2023/10/12 03:32:11;;;;;;;19.27;5.53;;;18.60;99.90;;;;;;5023461;28;20030;-59
2023/10/12 03:37:18;;;;;;;12.15;5.68;;;18.60;99.90;;;;;;5023111;28;20404;-59
2023/10/12 03:43:07;;;;;;;15.88;6.35;;;18.50;99.90;;;;;;5023345;28;20480;-59
2023/10/12 03:45:13;;;;;;;18.17;6.45;;;18.50;99.90;;;;;;5026901;28;20041;-56
2023/10/12 03:50:24;;;;;;;14.80;6.95;;;18.30;99.90;;;;;;5022415;28;20056;-59
2023/10/12 03:52:52;;;;;;;14.07;5.40;;;18.20;99.90;;;;;;5021313;28;20036;-59
2023/10/12 03:55:28;;;;;;;16.00;6.47;;;18.20;99.90;;;;;;5016599;28;20404;-59
2023/10/12 03:58:05;;;;;;;16.90;6.60;;;18.20;99.90;;;;;;5025555;28;20041;-59
2023/10/12 04:01:05;;;;;;;24.40;7.40;;;18.10;99.90;;;;;;5030830;28;20110;-59
2023/10/12 04:03:36;;;;;;;12.45;6.32;;;18.00;99.90;;;;;;5018484;28;20030;-57
2023/10/12 04:06:23;;;;;;;16.83;7.00;;;17.90;99.90;;;;;;5024455;28;20121;-58
2023/10/12 04:08:52;;;;;;;15.90;6.95;;;17.70;99.90;;;;;;5022384;28;20052;-59
2023/10/12 04:21:17;;;;;;;20.88;7.25;;;17.30;99.90;;;;;;5023787;28;20506;-57
2023/10/12 04:28:59;;;;;;;18.55;7.15;;;17.10;99.90;;;;;;5020352;28;20026;-59
2023/10/12 04:41:38;;;;;;;14.57;7.05;;;17.10;99.90;;;;;;5021769;28;20091;-56
2023/10/12 04:47:10;;;;;;;21.10;6.80;;;17.10;99.90;;;;;;5026277;28;20029;-59
2023/10/12 04:52:15;;;;;;;23.23;8.10;;;17.20;99.90;;;;;;5011914;28;20038;-58
2023/10/12 04:57:33;;;;;;;19.13;7.40;;;17.30;99.90;;;;;;5025242;28;20032;-55
2023/10/12 05:00:17;;;;;;;15.30;7.70;;;17.30;99.90;;;;;;5015488;28;20072;-55
2023/10/12 05:07:54;;;;;;;19.70;8.38;;;17.30;99.90;;;;;;5023548;28;20546;-58
2023/10/12 05:10:46;;;;;;;16.92;8.00;;;17.20;99.90;;;;;;5023713;28;20108;-58
2023/10/12 05:13:18;;;;;;;16.48;8.38;;;17.10;99.90;;;;;;5023146;28;20047;-59
2023/10/12 05:15:46;;;;;;;17.27;8.68;;;17.00;99.90;;;;;;5027918;28;20029;-58
2023/10/12 05:18:13;;;;;;;18.80;9.57;;;16.90;99.90;;;;;;5017664;28;20038;-59
2023/10/12 05:20:42;;;;;;;22.88;9.80;;;16.90;99.90;;;;;;5020872;28;20033;-58
2023/10/12 05:23:09;;;;;;;17.85;9.43;;;16.70;99.90;;;;;;5018827;28;20030;-59
2023/10/12 05:26:07;;;;;;;19.90;9.82;;;16.60;99.90;;;;;;5026089;28;20502;-58
2023/10/12 05:28:35;;;;;;;19.05;9.70;;;16.60;99.90;;;;;;5018291;28;20112;-58
2023/10/12 05:36:09;;;;;;;28.95;10.25;;;16.30;99.90;;;;;;5016658;28;20022;-60
2023/10/12 05:38:49;;;;;;;24.52;10.13;;;16.30;99.90;;;;;;5017257;28;20025;-58
2023/10/12 05:41:34;;;;;;;22.90;10.02;;;16.30;99.90;;;;;;5019555;28;20029;-58
2023/10/12 05:44:08;;;;;;;22.65;10.07;;;16.30;99.90;;;;;;5017344;28;20080;-57
2023/10/12 05:46:34;;;;;;;24.98;10.50;;;16.40;99.90;;;;;;5017477;28;20476;-60
2023/10/12 05:49:02;;;;;;;32.17;11.30;;;16.30;99.90;;;;;;5016653;28;20061;-57
2023/10/12 05:51:27;;;;;;;19.13;9.75;;;16.30;99.90;;;;;;5020037;28;20060;-59
2023/10/12 05:54:03;;;;;;;24.63;10.25;;;16.30;99.90;;;;;;5029477;28;20735;-56
2023/10/12 05:56:36;;;;;;;22.13;10.68;;;16.40;99.90;;;;;;5016239;28;20041;-56
2023/10/12 05:59:03;;;;;;;22.50;9.77;;;16.40;99.90;;;;;;5017958;28;20032;-57
2023/10/12 06:01:32;;;;;;;20.77;10.52;;;16.40;99.90;;;;;;5022733;28;20087;-59
2023/10/12 06:04:08;;;;;;;23.50;11.82;;;16.40;99.90;;;;;;5020607;28;20033;-57
2023/10/12 06:06:36;;;;;;;19.80;11.20;;;16.30;99.90;;;;;;5020398;28;20064;-57
2023/10/12 06:09:23;;;;;;;23.50;11.70;;;16.20;99.90;;;;;;5025194;28;20033;-59
2023/10/12 06:11:51;;;;;;;23.08;10.75;;;16.20;99.90;;;;;;5018568;28;20062;-57
2023/10/12 06:14:20;;;;;;;21.98;11.27;;;16.20;99.90;;;;;;5019405;28;20532;-55
2023/10/12 06:16:47;;;;;;;25.20;10.90;;;16.20;99.90;;;;;;5031142;28;20034;-59
2023/10/12 06:19:55;;;;;;;27.30;11.52;;;16.30;99.90;;;;;;5030854;28;20029;-57
2023/10/12 06:22:19;;;;;;;25.02;13.32;;;16.20;99.90;;;;;;5024186;28;20415;-58
2023/10/12 06:24:49;;;;;;;31.17;13.77;;;16.20;99.90;;;;;;5024463;28;20096;-58
2023/10/12 06:29:54;;;;;;;29.10;12.27;;;16.00;99.90;;;;;;5026920;28;20387;-59
2023/10/12 06:32:32;;;;;;;30.83;14.02;;;16.00;99.90;;;;;;5021362;28;20029;-59
2023/10/12 06:43:57;;;;;;;31.98;14.88;;;15.90;99.90;;;;;;5023529;28;20033;-58
2023/10/12 06:45:48;;;;;;;24.00;12.88;;;15.90;99.90;;;;;;5025404;28;20407;-56
2023/10/12 06:48:43;;;;;;;25.17;13.63;;;16.00;99.90;;;;;;5020728;28;20080;-58
2023/10/12 06:51:15;;;;;;;33.58;14.30;;;15.90;99.90;;;;;;5022173;28;20048;-58
2023/10/12 06:53:52;;;;;;;28.00;12.93;;;16.00;99.90;;;;;;5023206;28;20563;-58
2023/10/12 07:01:37;;;;;;;22.45;12.27;;;16.00;99.90;;;;;;5023096;28;20044;-56
2023/10/12 07:04:12;;;;;;;38.33;13.93;;;16.00;99.90;;;;;;5025472;28;20025;-60
2023/10/12 07:06:39;;;;;;;33.10;13.80;;;16.00;99.90;;;;;;5024280;28;20057;-57
2023/10/12 07:09:05;;;;;;;33.97;13.75;;;16.00;99.90;;;;;;5019600;28;20112;-58
2023/10/12 07:11:31;;;;;;;34.67;13.77;;;16.00;99.90;;;;;;5019357;28;20022;-58
2023/10/12 07:13:57;;;;;;;32.00;13.38;;;16.00;99.90;;;;;;5030887;28;20659;-59
2023/10/12 07:16:23;;;;;;;37.20;14.35;;;16.00;99.90;;;;;;5016004;28;20543;-58
2023/10/12 07:18:49;;;;;;;37.75;14.52;;;16.00;99.90;;;;;;5020908;28;20118;-57
2023/10/12 07:21:21;;;;;;;36.83;14.38;;;16.00;99.90;;;;;;5023162;28;20026;-59
2023/10/12 07:23:56;;;;;;;26.40;12.95;;;16.10;99.90;;;;;;5020929;28;20026;-57
2023/10/12 07:26:23;;;;;;;25.42;12.43;;;16.10;99.90;;;;;;5019604;28;20565;-58
2023/10/12 07:28:50;;;;;;;37.80;12.43;;;16.10;99.90;;;;;;5024911;28;20114;-59
2023/10/12 07:33:59;;;;;;;26.70;11.65;;;16.20;99.90;;;;;;5020982;28;20431;-58
2023/10/12 07:39:27;;;;;;;24.48;11.60;;;16.20;99.90;;;;;;5015655;28;20029;-58
2023/10/12 07:42:02;;;;;;;24.15;12.40;;;16.20;99.90;;;;;;5016289;28;20037;-57
2023/10/12 07:44:28;;;;;;;25.20;11.50;;;16.20;99.90;;;;;;5023837;28;20025;-57
2023/10/12 07:46:58;;;;;;;27.58;11.60;;;16.30;99.90;;;;;;5022262;28;20037;-58
2023/10/12 07:52:08;;;;;;;25.50;11.48;;;16.30;99.90;;;;;;5020437;28;20100;-58
2023/10/12 07:57:19;;;;;;;24.50;11.60;;;16.30;99.90;;;;;;5025216;28;19909;-56
2023/10/12 08:03:25;;;;;;;29.45;12.30;;;16.30;99.90;;;;;;5016794;28;20395;-57
2023/10/12 08:13:06;;;;;;;28.42;13.38;;;16.40;99.90;;;;;;5014074;28;20030;-55
2023/10/12 08:21:01;;;;;;;27.40;11.00;;;16.40;99.90;;;;;;5014488;28;20404;-57
2023/10/12 08:23:27;;;;;;;23.27;12.00;;;16.40;99.90;;;;;;5019450;28;20100;-51
2023/10/12 08:25:57;;;;;;;22.85;11.30;;;16.40;99.90;;;;;;5020128;28;20117;-56
2023/10/12 08:28:25;;;;;;;35.53;13.05;;;16.40;99.90;;;;;;5020391;28;20041;-58
2023/10/12 08:31:01;;;;;;;24.70;12.13;;;16.40;99.90;;;;;;5015613;28;20076;-58
2023/10/12 08:38:40;;;;;;;29.40;12.50;;;16.50;99.90;;;;;;5016394;28;20061;-52
2023/10/12 08:43:52;;;;;;;30.20;13.18;;;16.60;99.90;;;;;;5024895;28;20294;-53
2023/10/12 08:49:33;;;;;;;;;;;16.60;99.90;;;;;;5022701;28;20037;-56
2023/10/12 08:54:37;;;;;;;21.17;10.95;;;16.70;99.90;;;;;;5016110;28;20141;-57
2023/10/12 08:57:19;;;;;;;27.95;12.38;;;16.70;99.90;;;;;;5010571;28;20455;-56
2023/10/12 08:59:58;;;;;;;21.80;12.68;;;16.80;99.90;;;;;;5016144;28;20037;-57
2023/10/12 09:02:24;;;;;;;21.67;11.20;;;16.80;99.90;;;;;;5016576;28;20032;-57
2023/10/12 09:04:50;;;;;;;21.08;11.90;;;16.80;99.90;;;;;;5018910;28;20029;-55
2023/10/12 09:07:19;;;;;;;20.50;12.35;;;16.80;99.90;;;;;;5015067;28;20041;-56
2023/10/12 09:09:49;;;;;;;21.77;10.98;;;16.90;99.90;;;;;;5017669;28;20021;-55
2023/10/12 09:12:19;;;;;;;26.63;11.60;;;16.90;99.90;;;;;;5020130;28;20116;-59
2023/10/12 09:14:45;;;;;;;28.40;12.00;;;16.90;99.90;;;;;;5012155;28;20131;-59
2023/10/12 09:17:26;;;;;;;22.35;11.95;;;16.90;99.90;;;;;;5017609;28;20041;-58
2023/10/12 09:20:25;;;;;;;23.83;11.73;;;16.90;99.90;;;;;;5014576;28;20505;-58
2023/10/12 09:22:41;;;;;;;23.95;12.20;;;16.90;99.90;;;;;;5017465;28;20033;-57
2023/10/12 09:25:11;;;;;;;21.77;10.77;;;17.00;99.90;;;;;;5012174;28;20035;-59
2023/10/12 09:27:37;;;;;;;25.35;10.77;;;17.00;99.90;;;;;;5013938;28;20025;-58
2023/10/12 09:30:05;;;;;;;21.80;10.27;;;17.10;99.90;;;;;;5020585;28;20028;-58
2023/10/12 09:32:33;;;;;;;22.48;10.90;;;17.20;99.90;;;;;;5012678;28;20415;-60
2023/10/12 09:35:11;;;;;;;22.45;10.88;;;17.30;99.90;;;;;;5019768;28;20021;-58
2023/10/12 09:37:51;;;;;;;19.88;10.52;;;17.30;99.90;;;;;;5016414;28;20145;-61
2023/10/12 09:40:29;;;;;;;15.40;9.93;;;17.40;99.90;;;;;;5019873;28;20159;-59
2023/10/12 09:43:02;;;;;;;24.20;12.57;;;17.50;99.90;;;;;;5009655;28;20049;-61
2023/10/12 09:45:34;;;;;;;34.10;12.75;;;17.60;99.90;;;;;;5018149;28;20056;-61
2023/10/12 09:48:05;;;;;;;24.08;12.50;;;17.70;99.90;;;;;;5016528;28;20057;-65
2023/10/12 09:50:34;;;;;;;19.70;11.45;;;17.70;99.90;;;;;;5017206;28;20481;-57
2023/10/12 09:53:12;;;;;;;23.20;12.95;;;17.80;99.90;;;;;;5011605;28;20088;-56
2023/10/12 09:55:45;;;;;;;28.55;12.50;;;17.80;99.90;;;;;;5013743;28;20741;-58
2023/10/12 09:58:15;;;;;;;18.33;10.18;;;17.90;99.90;;;;;;5013419;28;20507;-57
2023/10/12 10:00:55;;;;;;;20.13;10.43;;;18.10;99.90;;;;;;5019582;28;20022;-58
2023/10/12 10:03:23;;;;;;;22.88;9.82;;;18.20;99.90;;;;;;5013720;28;20021;-56
2023/10/12 10:06:01;;;;;;;21.88;10.55;;;18.30;99.90;;;;;;5017509;28;20029;-57
2023/10/12 10:08:29;;;;;;;20.05;10.98;;;18.30;99.90;;;;;;5009142;28;20033;-59
2023/10/12 10:10:59;;;;;;;20.15;9.68;;;18.40;99.90;;;;;;5014017;28;20038;-58
2023/10/12 10:13:47;;;;;;;21.88;9.52;;;18.50;99.90;;;;;;5015024;28;20029;-59
2023/10/12 10:16:17;;;;;;;20.63;8.27;;;18.50;99.90;;;;;;5023270;28;20029;-58
2023/10/12 10:19:13;;;;;;;17.50;8.65;;;18.60;99.90;;;;;;5018838;28;20037;-57
2023/10/12 10:22:03;;;;;;;22.48;9.00;;;18.70;99.90;;;;;;5019008;28;20034;-59
2023/10/12 10:24:57;;;;;;;19.55;8.85;;;18.80;99.90;;;;;;5020350;28;20037;-55
2023/10/12 10:27:34;;;;;;;17.45;8.52;;;18.80;99.90;;;;;;5017810;28;20037;-58
2023/10/12 10:30:26;;;;;;;23.55;8.88;;;18.80;99.90;;;;;;5021689;28;20607;-57
2023/10/12 10:33:12;;;;;;;23.58;9.80;;;18.90;99.90;;;;;;5018921;28;20133;-57
2023/10/12 10:36:17;;;;;;;16.95;8.73;;;18.90;99.90;;;;;;5021364;28;20029;-54
2023/10/12 10:38:53;;;;;;;17.38;8.82;;;19.10;99.90;;;;;;5021670;28;20492;-57
2023/10/12 10:41:46;;;;;;;18.38;8.88;;;19.40;99.90;;;;;;5021947;28;20048;-58
2023/10/12 10:44:16;;;;;;;19.17;8.57;;;19.40;99.90;;;;;;5016728;28;20048;-59
2023/10/12 10:46:46;;;;;;;14.93;7.82;;;19.30;99.90;;;;;;5019865;28;20201;-54
2023/10/12 10:49:15;;;;;;;22.90;8.23;;;19.40;99.90;;;;;;5015548;28;20454;-56
2023/10/12 10:52:02;;;;;;;14.98;7.95;;;19.40;99.90;;;;;;5018008;28;20484;-59
2023/10/12 10:54:28;;;;;;;14.30;7.70;;;19.40;99.90;;;;;;5023995;28;20037;-56
2023/10/12 10:56:58;;;;;;;21.10;8.13;;;19.50;99.90;;;;;;5021339;28;20030;-56
2023/10/12 10:59:23;;;;;;;15.98;8.30;;;19.50;99.90;;;;;;5025193;28;20026;-59
2023/10/12 11:01:49;;;;;;;17.95;8.07;;;19.60;99.90;;;;;;5019568;28;20686;-59
2023/10/12 11:05:00;;;;;;;18.35;7.90;;;19.70;99.90;;;;;;5022194;28;20021;-58
2023/10/12 11:07:13;;;;;;;16.58;7.88;;;19.70;99.90;;;;;;5027082;28;20541;-58
2023/10/12 11:12:20;;;;;;;22.80;7.20;;;19.70;99.90;;;;;;5021396;28;20025;-60
2023/10/12 11:14:58;;;;;;;16.92;7.82;;;19.60;99.90;;;;;;5020405;28;20091;-60
2023/10/12 11:17:26;;;;;;;21.70;5.85;;;19.70;99.90;;;;;;5019537;28;20056;-58
2023/10/12 11:19:52;;;;;;;14.90;7.07;;;19.60;99.90;;;;;;5023853;28;20108;-57
2023/10/12 11:22:19;;;;;;;20.95;6.78;;;19.60;99.90;;;;;;5027951;28;20239;-57
2023/10/12 11:24:45;;;;;;;14.18;5.90;;;19.60;99.90;;;;;;5028611;28;20183;-57
2023/10/12 11:27:12;;;;;;;16.42;6.75;;;19.60;99.90;;;;;;5024471;28;20502;-56
2023/10/12 11:29:50;;;;;;;16.75;6.88;;;19.80;99.90;;;;;;5020335;28;20045;-57
2023/10/12 11:32:16;;;;;;;20.40;6.25;;;19.70;99.90;;;;;;5024197;28;20487;-56
2023/10/12 11:34:45;;;;;;;17.77;6.38;;;19.80;99.90;;;;;;5027227;28;20048;-54
2023/10/12 11:37:13;;;;;;;23.35;5.90;;;19.80;99.90;;;;;;5022076;28;20435;-57
2023/10/12 11:39:50;;;;;;;14.35;6.35;;;19.90;99.90;;;;;;5014753;28;20484;-57
2023/10/12 11:42:17;;;;;;;13.25;6.38;;;19.90;99.90;;;;;;5020684;28;20184;-57
2023/10/12 11:44:44;;;;;;;18.13;5.75;;;20.00;99.90;;;;;;5022583;28;20494;-56
2023/10/12 11:47:14;;;;;;;14.95;6.47;;;20.00;99.90;;;;;;5019803;28;20108;-58
2023/10/12 11:49:50;;;;;;;15.00;6.13;;;19.80;99.90;;;;;;5024297;28;20064;-54
2023/10/12 11:52:29;;;;;;;19.42;6.47;;;19.90;99.90;;;;;;5010792;28;20045;-53
2023/10/12 11:55:06;;;;;;;15.38;6.50;;;19.90;99.90;;;;;;5017958;28;20033;-57
2023/10/12 11:57:35;;;;;;;21.83;6.38;;;20.00;99.90;;;;;;5018763;28;20029;-58
2023/10/12 12:00:21;;;;;;;15.27;6.32;;;20.00;99.90;;;;;;5019228;28;20079;-56
2023/10/12 12:02:57;;;;;;;17.45;6.18;;;20.00;99.90;;;;;;5017677;28;20037;-55
2023/10/12 12:05:23;;;;;;;18.35;6.30;;;20.00;99.90;;;;;;5018991;28;20033;-57
2023/10/12 12:07:53;;;;;;;14.25;6.30;;;20.20;99.90;;;;;;5025254;28;20033;-58
2023/10/12 12:10:29;;;;;;;13.05;5.70;;;20.30;99.90;;;;;;5019242;28;20029;-57
2023/10/12 12:12:57;;;;;;;17.23;5.82;;;20.40;99.90;;;;;;5019977;28;20784;-53
2023/10/12 12:15:24;;;;;;;14.38;6.50;;;20.40;99.90;;;;;;5016663;28;20032;-56
2023/10/12 12:17:53;;;;;;;20.10;5.85;;;20.40;99.90;;;;;;5021253;28;20033;-55
2023/10/12 12:20:22;;;;;;;12.27;5.70;;;20.40;99.90;;;;;;5022895;28;20043;-57
2023/10/12 12:22:48;;;;;;;18.02;5.78;;;20.30;99.90;;;;;;5025260;28;20133;-52
2023/10/12 12:25:18;;;;;;;22.65;6.43;;;20.30;99.90;;;;;;5020480;28;20063;-51
2023/10/12 12:27:48;;;;;;;16.38;6.55;;;20.40;99.90;;;;;;5015224;28;20032;-57
2023/10/12 12:30:25;;;;;;;15.73;5.97;;;20.20;99.90;;;;;;5019612;28;20121;-55
2023/10/12 12:32:51;;;;;;;18.20;5.40;;;20.20;99.90;;;;;;5017548;28;20037;-55
2023/10/12 12:35:16;;;;;;;15.90;6.13;;;20.20;99.90;;;;;;5015095;28;20064;-59
2023/10/12 12:37:42;;;;;;;19.15;6.20;;;20.20;99.90;;;;;;5022945;28;20064;-57
2023/10/12 12:42:52;;;;;;;20.05;6.32;;;20.10;99.90;;;;;;5021080;28;20034;-58
2023/10/12 12:45:18;;;;;;;16.48;6.75;;;19.90;99.90;;;;;;5017589;28;20108;-57
2023/10/12 12:47:43;;;;;;;15.27;5.57;;;19.90;99.90;;;;;;5019669;28;20129;-58
2023/10/12 12:50:09;;;;;;;17.58;6.13;;;19.90;99.90;;;;;;5014872;28;20057;-58
2023/10/12 12:52:38;;;;;;;20.67;6.65;;;19.80;99.90;;;;;;5023473;28;20018;-53
2023/10/12 12:55:10;;;;;;;10.10;4.93;;;19.70;99.90;;;;;;5018880;28;20039;-55
2023/10/12 12:57:39;;;;;;;19.27;6.10;;;19.70;99.90;;;;;;5018165;28;20487;-58
2023/10/12 13:00:08;;;;;;;12.23;5.78;;;19.70;99.90;;;;;;5014104;28;20035;-57
2023/10/12 13:02:34;;;;;;;16.23;5.45;;;19.60;99.90;;;;;;5021977;28;20511;-54
2023/10/12 13:05:07;;;;;;;12.15;5.22;;;19.60;99.90;;;;;;5023539;28;20041;-56
2023/10/12 13:07:34;;;;;;;13.57;5.17;;;19.60;99.90;;;;;;5021581;28;20415;-55
2023/10/12 13:10:00;;;;;;;15.60;5.95;;;19.60;99.90;;;;;;5011708;28;20104;-56
2023/10/12 13:12:27;;;;;;;19.27;6.57;;;19.40;99.90;;;;;;5016409;28;20108;-55
2023/10/12 13:14:52;;;;;;;15.10;6.30;;;19.30;99.90;;;;;;5016239;28;20029;-57
2023/10/12 13:17:18;;;;;;;19.10;6.57;;;19.10;99.90;;;;;;5016878;28;20041;-56
2023/10/12 13:19:44;;;;;;;14.48;7.32;;;19.00;99.90;;;;;;5011790;28;20037;-57
2023/10/12 13:22:12;;;;;;;15.10;6.35;;;19.00;99.90;;;;;;5012812;28;20104;-58
2023/10/12 13:24:38;;;;;;;17.25;6.93;;;18.80;99.90;;;;;;5008064;28;20079;-58
2023/10/12 13:27:08;;;;;;;19.08;7.93;;;18.50;99.90;;;;;;5015939;28;20030;-59
2023/10/12 13:29:34;;;;;;;22.85;7.80;;;18.50;99.90;;;;;;5022296;28;20040;-59
2023/10/12 13:32:00;;;;;;;16.73;7.60;;;18.40;99.90;;;;;;5016272;28;20492;-58
2023/10/12 13:34:27;;;;;;;20.00;7.57;;;18.40;99.90;;;;;;5013315;28;20050;-59
2023/10/12 13:36:53;;;;;;;24.25;8.32;;;18.30;99.90;;;;;;5018595;28;20392;-56
2023/10/12 13:39:18;;;;;;;17.02;7.95;;;18.20;99.90;;;;;;5016027;28;20034;-58
2023/10/12 13:41:44;;;;;;;20.88;7.43;;;18.30;99.90;;;;;;5021486;28;20072;-59
2023/10/12 13:44:09;;;;;;;17.60;7.93;;;18.20;99.90;;;;;;5015018;28;20033;-57
2023/10/12 13:46:35;;;;;;;18.15;7.40;;;18.20;99.90;;;;;;5014255;28;20026;-60
2023/10/12 13:49:02;;;;;;;21.83;7.53;;;18.20;99.90;;;;;;5010952;28;20037;-59
2023/10/12 13:51:31;;;;;;;20.25;7.72;;;18.10;99.90;;;;;;5018639;28;20017;-59
2023/10/12 13:53:58;;;;;;;20.70;6.97;;;18.10;99.90;;;;;;5008915;28;20025;-58
2023/10/12 13:56:24;;;;;;;18.45;7.65;;;18.10;99.90;;;;;;5014734;28;20061;-57
2023/10/12 13:58:52;;;;;;;17.98;8.10;;;18.20;99.90;;;;;;5021262;28;20491;-58
2023/10/12 14:01:21;;;;;;;16.40;8.60;;;18.20;99.90;;;;;;5013905;28;20038;-60
2023/10/12 14:03:57;;;;;;;16.23;7.95;;;18.00;99.90;;;;;;5018331;28;20041;-55
2023/10/12 14:06:23;;;;;;;22.55;9.85;;;18.10;99.90;;;;;;5016868;28;20052;-60
2023/10/12 14:08:49;;;;;;;24.13;9.32;;;18.00;99.90;;;;;;5008529;28;20064;-58
2023/10/12 14:11:17;;;;;;;21.23;10.32;;;18.10;99.90;;;;;;5011431;28;20032;-59
2023/10/12 14:13:47;;;;;;;16.92;9.93;;;18.00;99.90;;;;;;5011304;28;20032;-57
2023/10/12 14:16:13;;;;;;;23.20;10.70;;;18.20;99.90;;;;;;5012939;28;20030;-57
2023/10/12 14:18:40;;;;;;;23.35;9.45;;;18.30;99.90;;;;;;5019541;28;20038;-59
2023/10/12 14:21:11;;;;;;;21.20;10.35;;;18.40;99.90;;;;;;5014982;28;20108;-54
2023/10/12 14:23:40;;;;;;;20.13;9.00;;;18.40;99.90;;;;;;5012815;28;20037;-58
2023/10/12 14:26:09;;;;;;;21.67;9.18;;;18.30;99.90;;;;;;5015991;28;20736;-54
2023/10/12 14:28:35;;;;;;;19.00;8.05;;;18.30;99.90;;;;;;5014713;28;20085;-57
2023/10/12 14:31:01;;;;;;;17.35;7.78;;;18.30;99.90;;;;;;5020044;28;20018;-57
2023/10/12 14:33:30;;;;;;;14.00;7.70;;;18.30;99.90;;;;;;5016922;28;20770;-55
2023/10/12 14:35:56;;;;;;;15.85;7.80;;;18.30;99.90;;;;;;5014626;28;20030;-55
2023/10/12 14:38:22;;;;;;;23.98;8.40;;;18.30;99.90;;;;;;5020865;28;20025;-58
2023/10/12 14:40:48;;;;;;;15.35;7.53;;;18.20;99.90;;;;;;5016061;28;20527;-57
2023/10/12 14:43:15;;;;;;;15.63;7.72;;;18.20;99.90;;;;;;5014362;28;20033;-59
2023/10/12 14:45:48;;;;;;;18.88;6.90;;;18.10;99.90;;;;;;5014320;28;20025;-57
2023/10/12 14:48:17;;;;;;;14.32;6.95;;;18.20;99.90;;;;;;5019348;28;20856;-57
2023/10/12 14:50:49;;;;;;;14.57;7.07;;;18.20;99.90;;;;;;5015742;28;20144;-55
2023/10/12 14:53:16;;;;;;;18.35;6.85;;;18.30;99.90;;;;;;5018002;28;20371;-56
2023/10/12 14:55:51;;;;;;;12.73;6.35;;;18.10;99.90;;;;;;5012268;28;20044;-57
2023/10/12 14:58:18;;;;;;;18.17;6.85;;;18.10;99.90;;;;;;5018089;28;20064;-57
2023/10/12 15:00:45;;;;;;;25.90;7.30;;;18.20;99.90;;;;;;5017802;28;20033;-58
2023/10/12 15:03:11;;;;;;;17.38;7.30;;;18.20;99.90;;;;;;5011450;28;20045;-57
2023/10/12 15:05:37;;;;;;;17.63;7.45;;;18.30;99.90;;;;;;5017155;28;20041;-57
2023/10/12 15:08:07;;;;;;;13.95;6.72;;;18.30;99.90;;;;;;5014168;28;20626;-59